createdAt,value
2018-05-03T00:01:53.740Z,12.35
2018-05-03T00:04:21.462Z,12.35
2018-05-03T00:06:49.231Z,12.43
2018-05-03T00:09:17.340Z,12.35
2018-05-03T00:11:45.067Z,12.07
2018-05-03T00:14:12.914Z,12.14
2018-05-03T00:16:40.737Z,12.15
2018-05-03T00:19:08.443Z,12.24
2018-05-03T00:21:36.084Z,12.31
2018-05-03T00:24:03.701Z,12.29
2018-05-03T00:26:31.381Z,12.26
2018-05-03T00:28:59.121Z,12.20
2018-05-03T00:31:28.884Z,12.26
2018-05-03T00:33:56.565Z,12.21
2018-05-03T00:36:24.209Z,12.24
2018-05-03T00:38:52.032Z,12.34
2018-05-03T00:41:19.733Z,12.24
2018-05-03T00:43:47.371Z,12.23
2018-05-03T00:46:15.047Z,12.26
2018-05-03T00:48:42.824Z,12.20
2018-05-03T00:51:10.447Z,12.20
2018-05-03T00:53:38.098Z,12.24
2018-05-03T00:56:05.723Z,12.35
2018-05-03T00:58:33.420Z,12.51
2018-05-03T01:01:09.872Z,12.71
2018-05-03T01:03:37.791Z,12.88
2018-05-03T01:06:09.425Z,12.95
2018-05-03T01:08:37.556Z,13.04
2018-05-03T01:11:05.625Z,13.06
2018-05-03T01:13:33.600Z,13.03
2018-05-03T01:16:04.480Z,13.03
2018-05-03T01:18:32.549Z,13.07
2018-05-03T01:21:00.384Z,13.11
2018-05-03T01:23:28.069Z,13.04
2018-05-03T01:25:55.729Z,13.08
2018-05-03T01:28:24.459Z,13.09
2018-05-03T01:30:52.646Z,13.05
2018-05-03T01:33:20.261Z,12.99
2018-05-03T01:35:59.748Z,13.00
2018-05-03T01:38:27.457Z,13.08
2018-05-03T01:40:55.144Z,12.96
2018-05-03T01:43:22.878Z,13.00
2018-05-03T01:45:50.713Z,13.08
2018-05-03T01:48:18.517Z,13.13
2018-05-03T01:50:46.340Z,13.04
2018-05-03T01:53:13.910Z,13.13
2018-05-03T01:55:41.647Z,12.94
2018-05-03T01:58:09.930Z,12.97
2018-05-03T02:00:38.013Z,12.91
2018-05-03T02:03:05.953Z,12.88
2018-05-03T02:05:40.230Z,12.87
2018-05-03T02:08:13.020Z,12.78
2018-05-03T02:13:28.913Z,12.81
2018-05-03T02:15:56.721Z,12.82
2018-05-03T02:21:20.540Z,12.81
2018-05-03T02:24:00.737Z,12.73
2018-05-03T02:26:33.612Z,12.75
2018-05-03T02:29:05.577Z,12.86
2018-05-03T02:31:35.043Z,12.83
2018-05-03T02:34:02.650Z,12.75
2018-05-03T02:39:12.350Z,12.79
2018-05-03T02:41:40.101Z,12.76
2018-05-03T02:44:07.725Z,12.76
2018-05-03T02:46:36.112Z,12.83
2018-05-03T02:49:03.772Z,12.78
2018-05-03T02:51:31.385Z,12.75
2018-05-03T02:53:59.026Z,12.81
2018-05-03T02:56:26.646Z,12.80
2018-05-03T02:59:05.796Z,12.84
2018-05-03T03:05:14.130Z,12.87
2018-05-03T03:11:40.006Z,12.81
2018-05-03T03:14:35.849Z,12.73
2018-05-03T03:17:24.203Z,12.79
2018-05-03T03:20:05.411Z,12.80
2018-05-03T03:22:50.483Z,12.68
2018-05-03T03:28:58.269Z,12.87
2018-05-03T03:31:43.345Z,12.79
2018-05-03T03:34:17.589Z,12.82
2018-05-03T03:40:09.291Z,12.79
2018-05-03T03:45:48.160Z,12.74
2018-05-03T03:48:15.808Z,12.74
2018-05-03T03:50:43.676Z,12.62
2018-05-03T03:53:11.459Z,12.57
2018-05-03T03:55:39.197Z,12.54
2018-05-03T03:58:06.856Z,12.53
2018-05-03T04:00:34.505Z,12.48
2018-05-03T04:03:02.210Z,12.51
2018-05-03T04:05:29.934Z,12.48
2018-05-03T04:07:57.590Z,12.48
2018-05-03T04:10:25.281Z,12.49
2018-05-03T04:12:52.925Z,12.38
2018-05-03T04:15:20.603Z,12.35
2018-05-03T04:17:59.985Z,12.32
2018-05-03T04:23:47.641Z,12.26
2018-05-03T04:26:15.299Z,12.27
2018-05-03T04:28:42.914Z,12.13
2018-05-03T04:31:10.540Z,12.10
2018-05-03T04:33:38.133Z,12.06
2018-05-03T04:36:05.773Z,12.07
2018-05-03T04:38:33.396Z,12.01
2018-05-03T04:41:01.044Z,12.03
2018-05-03T04:43:28.637Z,11.98
2018-05-03T04:45:56.312Z,11.91
2018-05-03T04:48:23.909Z,11.81
2018-05-03T04:50:51.552Z,11.73
2018-05-03T04:53:19.250Z,11.75
2018-05-03T04:55:46.833Z,11.64
2018-05-03T04:58:14.479Z,11.66
2018-05-03T05:00:42.084Z,11.70
2018-05-03T05:03:09.718Z,11.73
2018-05-03T05:05:37.372Z,11.64
2018-05-03T05:08:04.992Z,11.59
2018-05-03T05:10:32.616Z,11.66
2018-05-03T05:13:00.240Z,11.72
2018-05-03T05:15:27.852Z,11.68
2018-05-03T05:17:55.611Z,11.77
2018-05-03T05:20:23.134Z,11.80
2018-05-03T05:22:50.762Z,11.78
2018-05-03T05:25:18.382Z,11.85
2018-05-03T05:27:46.005Z,11.81
2018-05-03T05:30:13.659Z,11.78
2018-05-03T05:32:41.301Z,11.78
2018-05-03T05:35:08.909Z,11.75
2018-05-03T05:37:36.484Z,11.75
2018-05-03T05:40:04.124Z,11.61
2018-05-03T05:42:31.732Z,11.68
2018-05-03T05:44:59.416Z,11.73
2018-05-03T05:47:27.080Z,11.73
2018-05-03T05:49:54.708Z,11.76
2018-05-03T05:52:22.312Z,11.75
2018-05-03T05:54:49.947Z,11.87
2018-05-03T05:57:17.784Z,11.91
2018-05-03T05:59:45.458Z,11.88
2018-05-03T06:02:13.053Z,12.05
2018-05-03T06:04:40.847Z,12.18
2018-05-03T06:07:08.482Z,12.22
2018-05-03T06:09:36.133Z,12.32
2018-05-03T06:12:03.732Z,12.28
2018-05-03T06:14:31.382Z,12.32
2018-05-03T06:16:59.006Z,12.36
2018-05-03T06:19:26.639Z,12.35
2018-05-03T06:21:54.244Z,12.41
2018-05-03T06:24:21.881Z,12.23
2018-05-03T06:26:49.481Z,12.17
2018-05-03T06:29:17.228Z,12.26
2018-05-03T06:31:44.862Z,12.37
2018-05-03T06:34:12.473Z,12.40
2018-05-03T06:36:40.125Z,12.41
2018-05-03T06:39:07.753Z,12.37
2018-05-03T06:41:35.406Z,12.34
2018-05-03T06:44:03.028Z,12.47
2018-05-03T06:46:30.690Z,12.53
2018-05-03T06:48:58.272Z,12.61
2018-05-03T06:51:25.920Z,12.60
2018-05-03T06:53:53.500Z,12.43
2018-05-03T06:56:21.143Z,12.42
2018-05-03T06:58:48.748Z,12.40
2018-05-03T07:01:16.414Z,12.40
2018-05-03T07:03:44.037Z,12.54
2018-05-03T07:06:11.751Z,12.63
2018-05-03T07:08:39.403Z,12.84
2018-05-03T07:11:07.048Z,12.86
2018-05-03T07:13:34.721Z,13.05
2018-05-03T07:16:02.353Z,13.20
2018-05-03T07:18:29.949Z,13.21
2018-05-03T07:20:57.619Z,13.15
2018-05-03T07:23:25.281Z,13.05
2018-05-03T07:25:52.938Z,12.86
2018-05-03T07:28:20.557Z,13.07
2018-05-03T07:30:48.209Z,13.24
2018-05-03T07:33:15.881Z,13.26
2018-05-03T07:35:43.484Z,13.25
2018-05-03T07:38:11.112Z,13.41
2018-05-03T07:40:38.725Z,13.41
2018-05-03T07:43:06.353Z,13.25
2018-05-03T07:45:33.966Z,13.11
2018-05-03T07:48:01.621Z,13.05
2018-05-03T07:50:29.270Z,13.05
2018-05-03T07:52:56.915Z,13.00
2018-05-03T07:55:24.529Z,13.03
2018-05-03T07:57:52.344Z,13.13
2018-05-03T08:00:19.946Z,13.23
2018-05-03T08:02:47.611Z,13.32
2018-05-03T08:05:15.218Z,13.33
2018-05-03T08:07:42.904Z,13.37
2018-05-03T08:10:10.526Z,13.48
2018-05-03T08:12:38.225Z,13.55
2018-05-03T08:15:05.820Z,13.49
2018-05-03T08:17:33.399Z,13.64
2018-05-03T08:20:01.145Z,13.91
2018-05-03T08:22:28.812Z,14.12
2018-05-03T08:24:56.425Z,14.18
2018-05-03T08:27:24.040Z,14.27
2018-05-03T08:29:51.862Z,14.25
2018-05-03T08:32:19.456Z,14.22
2018-05-03T08:34:47.144Z,14.24
2018-05-03T08:37:14.768Z,14.38
2018-05-03T08:39:42.472Z,14.29
2018-05-03T08:42:10.116Z,14.39
2018-05-03T08:44:37.860Z,14.49
2018-05-03T08:47:05.461Z,14.57
2018-05-03T08:49:33.250Z,14.31
2018-05-03T08:52:00.922Z,14.43
2018-05-03T08:54:28.565Z,14.41
2018-05-03T08:56:56.172Z,14.40
2018-05-03T08:59:23.880Z,14.38
2018-05-03T09:01:51.518Z,14.41
2018-05-03T09:04:19.189Z,14.48
2018-05-03T09:06:46.829Z,14.68
2018-05-03T09:09:14.729Z,14.89
2018-05-03T09:11:42.412Z,14.98
2018-05-03T09:14:10.032Z,14.98
2018-05-03T09:16:37.682Z,15.17
2018-05-03T09:19:05.375Z,15.17
2018-05-03T09:21:33.047Z,15.22
2018-05-03T09:24:00.666Z,15.22
2018-05-03T09:26:28.303Z,15.24
2018-05-03T09:28:55.923Z,15.29
2018-05-03T09:31:23.622Z,15.34
2018-05-03T09:33:51.248Z,15.47
2018-05-03T09:36:18.894Z,15.51
2018-05-03T09:38:46.640Z,15.63
2018-05-03T09:41:14.287Z,15.73
2018-05-03T09:43:41.887Z,15.80
2018-05-03T09:46:09.538Z,16.02
2018-05-03T09:48:37.140Z,16.03
2018-05-03T09:51:04.815Z,15.69
2018-05-03T09:53:32.533Z,15.74
2018-05-03T09:56:00.183Z,15.78
2018-05-03T09:58:27.770Z,15.92
2018-05-03T10:00:55.425Z,15.98
2018-05-03T10:03:23.039Z,15.92
2018-05-03T10:05:50.660Z,15.98
2018-05-03T10:08:18.424Z,15.91
2018-05-03T10:10:46.176Z,15.83
2018-05-03T10:13:13.873Z,15.81
2018-05-03T10:15:41.436Z,15.56
2018-05-03T10:18:09.100Z,15.73
2018-05-03T10:20:36.716Z,15.65
2018-05-03T10:23:04.376Z,15.80
2018-05-03T10:25:31.981Z,16.08
2018-05-03T10:27:59.618Z,16.29
2018-05-03T10:30:27.228Z,16.36
2018-05-03T10:32:55.030Z,16.70
2018-05-03T10:35:22.650Z,16.72
2018-05-03T10:37:50.314Z,16.93
2018-05-03T10:40:17.917Z,17.10
2018-05-03T10:42:45.529Z,17.23
2018-05-03T10:45:13.188Z,17.52
2018-05-03T10:47:40.837Z,17.58
2018-05-03T10:50:08.482Z,17.41
2018-05-03T10:52:36.072Z,17.84
2018-05-03T10:55:03.725Z,17.89
2018-05-03T10:57:31.494Z,17.19
2018-05-03T10:59:59.098Z,17.32
2018-05-03T11:02:26.704Z,17.23
2018-05-03T11:04:54.332Z,16.75
2018-05-03T11:07:21.937Z,16.77
2018-05-03T11:09:49.586Z,16.80
2018-05-03T11:12:17.186Z,16.37
2018-05-03T11:14:44.833Z,16.81
2018-05-03T11:17:12.442Z,16.93
2018-05-03T11:19:40.105Z,16.80
2018-05-03T11:22:08.065Z,17.15
2018-05-03T11:24:35.742Z,17.38
2018-05-03T11:27:03.345Z,17.13
2018-05-03T11:29:30.965Z,17.50
2018-05-03T11:31:58.638Z,17.91
2018-05-03T11:34:26.258Z,18.19
2018-05-03T11:36:54.006Z,18.13
2018-05-03T11:39:21.545Z,18.03
2018-05-03T11:41:49.216Z,18.46
2018-05-03T11:44:16.824Z,18.77
2018-05-03T11:46:44.485Z,18.85
2018-05-03T11:49:12.090Z,18.71
2018-05-03T11:51:39.793Z,18.80
2018-05-03T11:54:07.428Z,18.77
2018-05-03T11:56:35.090Z,19.03
2018-05-03T11:59:02.734Z,18.79
2018-05-03T12:01:30.533Z,18.64
2018-05-03T12:03:58.175Z,18.62
2018-05-03T12:06:25.835Z,18.51
2018-05-03T12:08:53.505Z,18.08
2018-05-03T12:11:21.088Z,18.59
2018-05-03T12:13:48.769Z,19.06
2018-05-03T12:16:16.445Z,18.92
2018-05-03T12:18:44.097Z,18.50
2018-05-03T12:21:11.706Z,18.63
2018-05-03T12:23:39.356Z,18.64
2018-05-03T12:26:07.086Z,18.69
2018-05-03T12:28:34.745Z,19.25
2018-05-03T12:31:02.353Z,19.90
2018-05-03T12:33:30.009Z,19.90
2018-05-03T12:35:57.617Z,19.78
2018-05-03T12:38:25.311Z,19.58
2018-05-03T12:40:52.945Z,19.20
2018-05-03T12:43:20.568Z,18.79
2018-05-03T12:45:48.183Z,18.69
2018-05-03T12:48:15.829Z,19.02
2018-05-03T12:50:43.495Z,18.78
2018-05-03T12:53:11.096Z,19.71
2018-05-03T12:55:38.717Z,19.75
2018-05-03T12:58:06.318Z,19.52
2018-05-03T13:00:34.040Z,19.42
2018-05-03T13:03:01.663Z,19.24
2018-05-03T13:05:29.352Z,19.10
2018-05-03T13:07:56.963Z,19.16
2018-05-03T13:10:24.600Z,18.76
2018-05-03T13:12:52.219Z,18.68
2018-05-03T13:15:19.868Z,19.61
2018-05-03T13:17:47.582Z,19.77
2018-05-03T13:20:15.358Z,19.84
2018-05-03T13:22:42.930Z,19.98
2018-05-03T13:25:10.544Z,20.15
2018-05-03T13:27:38.184Z,20.21
2018-05-03T13:30:05.799Z,20.53
2018-05-03T13:32:33.475Z,20.31
2018-05-03T13:35:01.093Z,19.99
2018-05-03T13:37:28.866Z,19.99
2018-05-03T13:39:56.467Z,20.49
2018-05-03T13:42:24.128Z,20.82
2018-05-03T13:44:51.733Z,20.94
2018-05-03T13:47:19.434Z,21.20
2018-05-03T13:49:47.118Z,20.97
2018-05-03T13:52:14.766Z,20.07
2018-05-03T13:54:42.411Z,19.27
2018-05-03T13:57:10.069Z,18.74
2018-05-03T13:59:37.710Z,19.16
2018-05-03T14:02:05.413Z,19.26
2018-05-03T14:04:33.059Z,18.97
2018-05-03T14:07:00.754Z,18.62
2018-05-03T14:09:28.497Z,19.23
2018-05-03T14:11:56.154Z,18.92
2018-05-03T14:14:23.834Z,19.18
2018-05-03T14:16:51.535Z,19.28
2018-05-03T14:19:19.895Z,19.37
2018-05-03T14:21:47.441Z,19.17
2018-05-03T14:24:15.093Z,19.49
2018-05-03T14:26:42.736Z,19.85
2018-05-03T14:29:10.338Z,20.19
2018-05-03T14:31:37.958Z,20.17
2018-05-03T14:34:05.605Z,20.25
2018-05-03T14:36:33.203Z,20.44
2018-05-03T14:39:00.857Z,20.56
2018-05-03T14:41:28.458Z,20.62
2018-05-03T14:43:56.145Z,20.50
2018-05-03T14:46:23.741Z,20.27
2018-05-03T14:48:51.374Z,20.37
2018-05-03T14:51:19.024Z,20.68
2018-05-03T14:53:46.628Z,20.42
2018-05-03T14:56:14.331Z,21.14
2018-05-03T14:58:41.944Z,21.75
2018-05-03T15:01:09.566Z,21.43
2018-05-03T15:03:37.175Z,21.76
2018-05-03T15:06:04.822Z,21.62
2018-05-03T15:08:32.468Z,21.15
2018-05-03T15:11:00.108Z,20.57
2018-05-03T15:13:27.706Z,20.38
2018-05-03T15:15:55.453Z,20.23
2018-05-03T15:18:23.158Z,20.98
2018-05-03T15:20:50.947Z,21.32
2018-05-03T15:23:18.555Z,21.47
2018-05-03T15:25:46.209Z,21.65
2018-05-03T15:28:13.821Z,21.71
2018-05-03T15:30:41.419Z,21.62
2018-05-03T15:33:09.113Z,21.91
2018-05-03T15:35:36.707Z,21.93
2018-05-03T15:38:04.423Z,20.98
2018-05-03T15:40:32.040Z,21.05
2018-05-03T15:42:59.768Z,21.15
2018-05-03T15:45:27.482Z,20.94
2018-05-03T15:47:55.101Z,21.25
2018-05-03T15:50:22.681Z,21.63
2018-05-03T15:52:50.386Z,21.72
2018-05-03T15:55:17.991Z,21.65
2018-05-03T15:57:45.645Z,21.81
2018-05-03T16:00:13.258Z,22.06
2018-05-03T16:02:40.907Z,22.10
2018-05-03T16:05:08.563Z,22.25
2018-05-03T16:07:36.232Z,21.85
2018-05-03T16:10:03.876Z,21.67
2018-05-03T16:12:31.522Z,21.53
2018-05-03T16:14:59.193Z,21.79
2018-05-03T16:17:26.821Z,21.29
2018-05-03T16:19:54.543Z,20.92
2018-05-03T16:22:22.177Z,20.86
2018-05-03T16:24:49.819Z,21.13
2018-05-03T16:27:17.495Z,20.83
2018-05-03T16:29:45.177Z,20.60
2018-05-03T16:32:12.790Z,20.66
2018-05-03T16:34:40.457Z,20.76
2018-05-03T16:37:08.147Z,20.66
2018-05-03T16:39:35.766Z,20.75
2018-05-03T16:42:03.431Z,20.82
2018-05-03T16:44:31.088Z,21.06
2018-05-03T16:46:58.753Z,20.99
2018-05-03T16:49:26.523Z,20.53
2018-05-03T16:51:54.300Z,20.12
2018-05-03T16:54:22.083Z,19.93
2018-05-03T16:56:49.810Z,20.41
2018-05-03T16:59:17.779Z,20.51
2018-05-03T17:01:45.600Z,20.52
2018-05-03T17:04:13.188Z,20.72
2018-05-03T17:06:40.928Z,20.72
2018-05-03T17:09:08.559Z,20.42
2018-05-03T17:11:36.517Z,20.26
2018-05-03T17:14:04.268Z,20.15
2018-05-03T17:16:31.914Z,20.17
2018-05-03T17:18:59.533Z,20.57
2018-05-03T17:21:27.185Z,20.63
2018-05-03T17:23:54.817Z,19.94
2018-05-03T17:26:22.421Z,19.88
2018-05-03T17:28:50.094Z,19.85
2018-05-03T17:31:17.681Z,19.90
2018-05-03T17:33:45.447Z,19.96
2018-05-03T17:36:13.121Z,19.94
2018-05-03T17:38:40.806Z,19.72
2018-05-03T17:41:08.409Z,19.95
2018-05-03T17:43:36.102Z,19.80
2018-05-03T17:46:03.753Z,19.56
2018-05-03T17:48:31.440Z,19.62
2018-05-03T17:50:59.067Z,19.56
2018-05-03T17:53:26.752Z,19.67
2018-05-03T17:55:54.396Z,19.73
2018-05-03T17:58:22.105Z,19.46
2018-05-03T18:00:49.735Z,18.94
2018-05-03T18:03:17.400Z,18.75
2018-05-03T18:05:45.066Z,18.19
2018-05-03T18:08:12.707Z,18.08
2018-05-03T18:10:40.373Z,18.08
2018-05-03T18:13:07.960Z,18.21
2018-05-03T18:15:35.625Z,18.23
2018-05-03T18:18:03.217Z,18.15
2018-05-03T18:20:30.875Z,17.97
2018-05-03T18:22:58.485Z,17.82
2018-05-03T18:25:26.151Z,17.43
2018-05-03T18:27:53.756Z,17.48
2018-05-03T18:30:21.464Z,17.31
2018-05-03T18:32:49.091Z,17.29
2018-05-03T18:35:16.733Z,17.39
2018-05-03T18:37:44.368Z,17.36
2018-05-03T18:40:11.982Z,17.26
2018-05-03T18:42:39.613Z,17.16
2018-05-03T18:45:07.226Z,16.92
2018-05-03T18:47:34.920Z,16.85
2018-05-03T18:50:02.522Z,16.87
2018-05-03T18:52:30.163Z,16.67
2018-05-03T18:54:57.779Z,16.52
2018-05-03T18:57:25.429Z,16.41
2018-05-03T18:59:53.037Z,16.45
2018-05-03T19:02:20.691Z,16.38
2018-05-03T19:04:48.320Z,16.34
2018-05-03T19:07:15.984Z,16.45
2018-05-03T19:09:44.680Z,16.58
2018-05-03T19:12:12.380Z,16.52
2018-05-03T19:14:43.924Z,16.81
2018-05-03T19:17:11.912Z,16.65
2018-05-03T19:19:39.540Z,16.62
2018-05-03T19:22:07.247Z,16.53
2018-05-03T19:24:34.880Z,16.39
2018-05-03T19:27:02.538Z,16.28
2018-05-03T19:29:30.419Z,16.00
2018-05-03T19:31:58.078Z,15.76
2018-05-03T19:34:25.750Z,15.48
2018-05-03T19:36:53.382Z,15.29
2018-05-03T19:39:21.103Z,15.32
2018-05-03T19:41:49.513Z,15.27
2018-05-03T19:44:17.479Z,15.33
2018-05-03T19:46:45.171Z,15.26
2018-05-03T19:49:14.075Z,15.23
2018-05-03T19:51:42.580Z,15.00
2018-05-03T19:54:10.222Z,15.03
2018-05-03T19:56:37.823Z,15.11
2018-05-03T19:59:05.455Z,15.19
2018-05-03T20:01:33.101Z,15.31
2018-05-03T20:04:00.721Z,15.19
2018-05-03T20:06:28.361Z,15.22
2018-05-03T20:08:56.079Z,15.02
2018-05-03T20:11:23.827Z,14.62
2018-05-03T20:13:51.452Z,14.47
2018-05-03T20:16:19.123Z,14.45
2018-05-03T20:18:46.736Z,14.58
2018-05-03T20:21:14.383Z,14.61
2018-05-03T20:23:42.001Z,14.40
2018-05-03T20:26:09.659Z,14.20
2018-05-03T20:28:37.314Z,14.18
2018-05-03T20:31:04.984Z,14.31
2018-05-03T20:33:32.642Z,14.40
2018-05-03T20:36:00.248Z,14.39
2018-05-03T20:38:27.925Z,14.44
2018-05-03T20:40:55.533Z,14.25
2018-05-03T20:43:23.189Z,14.24
2018-05-03T20:45:50.809Z,14.19
2018-05-03T20:48:18.471Z,14.06
2018-05-03T20:50:46.062Z,13.77
2018-05-03T20:53:13.725Z,13.85
2018-05-03T20:55:41.358Z,13.81
2018-05-03T20:58:09.021Z,13.42
2018-05-03T21:00:36.637Z,13.56
2018-05-03T21:03:04.616Z,13.46
2018-05-03T21:05:32.767Z,13.50
2018-05-03T21:08:00.440Z,13.53
2018-05-03T21:10:28.125Z,13.54
2018-05-03T21:12:55.845Z,13.64
2018-05-03T21:15:23.493Z,13.59
2018-05-03T21:17:51.173Z,13.48
2018-05-03T21:20:18.802Z,13.60
2018-05-03T21:22:46.545Z,13.52
2018-05-03T21:25:14.405Z,13.53
2018-05-03T21:27:42.141Z,13.55
2018-05-03T21:30:09.844Z,13.52
2018-05-03T21:32:37.469Z,13.41
2018-05-03T21:35:05.336Z,13.45
2018-05-03T21:37:33.331Z,13.22
2018-05-03T21:40:02.711Z,12.89
2018-05-03T21:42:31.746Z,12.95
2018-05-03T21:44:59.772Z,12.65
2018-05-03T21:47:27.706Z,12.46
2018-05-03T21:49:55.395Z,12.48
2018-05-03T21:52:23.254Z,12.59
2018-05-03T21:54:55.108Z,12.70
2018-05-03T21:57:23.034Z,12.78
2018-05-03T21:59:51.054Z,12.79
2018-05-03T22:02:18.824Z,12.84
2018-05-03T22:04:46.838Z,12.53
2018-05-03T22:07:15.903Z,12.61
2018-05-03T22:09:43.905Z,12.72
2018-05-03T22:12:12.439Z,12.65
2018-05-03T22:14:40.564Z,12.62
2018-05-03T22:17:08.797Z,12.55
2018-05-03T22:19:39.742Z,12.42
2018-05-03T22:22:07.955Z,12.32
2018-05-03T22:24:39.584Z,12.25
2018-05-03T22:27:12.579Z,12.22
2018-05-03T22:29:40.597Z,12.21
2018-05-03T22:32:08.407Z,12.29
2018-05-03T22:34:37.430Z,12.26
2018-05-03T22:37:05.554Z,12.13
2018-05-03T22:39:34.490Z,12.19
2018-05-03T22:42:04.564Z,12.22
2018-05-03T22:44:33.363Z,12.04
2018-05-03T22:47:01.204Z,11.87
2018-05-03T22:49:28.963Z,11.92
2018-05-03T22:51:56.939Z,11.85
2018-05-03T22:54:24.636Z,11.78
2018-05-03T22:56:52.575Z,11.60
2018-05-03T22:59:20.278Z,11.65
2018-05-03T23:01:48.041Z,11.70
2018-05-03T23:04:15.768Z,11.63
2018-05-03T23:06:43.375Z,11.75
2018-05-03T23:09:11.076Z,11.73
2018-05-03T23:11:38.853Z,11.84
2018-05-03T23:14:06.641Z,11.97
2018-05-03T23:16:34.248Z,12.00
2018-05-03T23:19:01.945Z,12.04
2018-05-03T23:21:29.797Z,11.78
2018-05-03T23:23:57.475Z,11.73
2018-05-03T23:26:25.180Z,11.52
2018-05-03T23:28:53.773Z,11.37
2018-05-03T23:31:21.512Z,11.43
2018-05-03T23:33:50.479Z,11.33
2018-05-03T23:36:18.166Z,11.21
2018-05-03T23:38:45.862Z,11.33
2018-05-03T23:41:13.633Z,11.32
2018-05-03T23:43:41.469Z,11.06
2018-05-03T23:46:09.160Z,10.91
2018-05-03T23:48:36.790Z,11.06
2018-05-03T23:51:04.475Z,11.03
2018-05-03T23:53:32.137Z,10.98
2018-05-03T23:55:59.843Z,11.03
2018-05-03T23:58:27.500Z,10.97
